Time;durP1;ratioP1;P1;durP2;ratioP2;P2;SDS_P1;SDS_P2;PMS_P1;PMS_P2;Temp;Humidity;BMP_temperature;BMP_pressure;BME280_temperature;BME280_humidity;BME280_pressure;Samples;Min_cycle;Max_cycle;Signal;HPM_P1;HPM_P2
2021/12/10 00:00:50;;;;;;;6.63;2.58;;;;;;;17.98;50.72;99710.63;5088569;28;20081;-68
2021/12/10 00:03:21;;;;;;;8.00;2.88;;;;;;;17.96;50.94;99697.59;5089456;28;20057;-68
2021/12/10 00:06:12;;;;;;;8.57;2.70;;;;;;;17.93;50.88;99696.06;5088563;28;20066;-67
2021/12/10 00:08:40;;;;;;;7.03;2.50;;;;;;;17.91;50.78;99692.78;5076825;28;20039;-67
2021/12/10 00:11:11;;;;;;;7.47;2.50;;;;;;;17.88;50.67;99687.78;5090164;28;20016;-67
2021/12/10 00:13:37;;;;;;;6.82;2.47;;;;;;;17.86;50.75;99683.59;5090405;28;20070;-67
2021/12/10 00:16:03;;;;;;;7.38;2.50;;;;;;;17.83;51.14;99662.81;5093341;28;20032;-67
2021/12/10 00:18:34;;;;;;;7.65;2.53;;;;;;;17.82;50.91;99659.38;5093563;28;20509;-67
2021/12/10 00:21:04;;;;;;;10.50;2.72;;;;;;;17.80;50.65;99663.97;5092983;28;20046;-67
2021/12/10 00:23:31;;;;;;;8.50;2.63;;;;;;;17.79;50.67;99667.59;5094104;28;20073;-67
2021/12/10 00:25:58;;;;;;;7.75;2.83;;;;;;;17.76;50.59;99646.78;5093613;28;20090;-67
2021/12/10 00:28:41;;;;;;;8.13;2.60;;;;;;;17.72;50.64;99643.66;5092784;28;20077;-67
2021/12/10 00:31:30;;;;;;;7.10;2.75;;;;;;;17.71;50.70;99623.53;5093635;28;20089;-68
2021/12/10 00:34:01;;;;;;;7.18;2.45;;;;;;;17.68;50.93;99618.56;5092628;28;20035;-68
2021/12/10 00:36:27;;;;;;;6.88;2.33;;;;;;;17.64;50.60;99613.75;5094615;28;20028;-67
2021/12/10 00:38:53;;;;;;;8.00;2.40;;;;;;;17.64;51.10;99611.97;5092842;28;20078;-67
2021/12/10 00:41:20;;;;;;;7.05;2.60;;;;;;;17.62;51.15;99611.25;5092512;28;20332;-68
2021/12/10 00:43:46;;;;;;;9.18;3.05;;;;;;;17.60;51.22;99592.16;5092762;28;20028;-68
2021/12/10 00:46:12;;;;;;;9.27;2.67;;;;;;;17.58;51.07;99591.47;5092924;28;20093;-68
2021/12/10 00:48:37;;;;;;;6.97;2.30;;;;;;;17.58;50.76;99588.84;5092322;28;20028;-69
2021/12/10 00:51:05;;;;;;;8.27;2.13;;;;;;;17.55;50.61;99582.06;5092543;28;20052;-68
2021/12/10 00:53:35;;;;;;;8.52;2.35;;;;;;;17.55;50.69;99575.97;5092712;28;20031;-69
2021/12/10 00:56:02;;;;;;;6.57;2.40;;;;;;;17.51;51.09;99569.34;5091568;28;20391;-68
2021/12/10 00:58:29;;;;;;;8.93;2.20;;;;;;;17.49;50.87;99566.84;5092539;28;20110;-68
2021/12/10 01:00:58;;;;;;;6.45;2.35;;;;;;;17.47;50.88;99552.22;5092056;28;20024;-69
2021/12/10 01:03:29;;;;;;;9.73;2.92;;;;;;;17.45;50.81;99555.00;5091945;28;20066;-68
2021/12/10 01:06:00;;;;;;;8.35;2.38;;;;;;;17.42;51.01;99531.59;5092613;28;20389;-68
2021/12/10 01:08:26;;;;;;;8.32;2.00;;;;;;;17.43;51.29;99535.84;5092611;28;20028;-68
2021/12/10 01:11:02;;;;;;;7.35;2.03;;;;;;;17.42;51.38;99531.59;5091451;28;20372;-69
2021/12/10 01:13:35;;;;;;;9.52;2.42;;;;;;;17.40;50.74;99517.72;5092999;28;20032;-67
2021/12/10 01:23:37;;;;;;;6.15;2.13;;;;;;;17.39;51.05;99514.28;5091802;28;20052;-68
2021/12/10 01:24:49;;;;;;;6.00;1.98;;;;;;;17.33;50.85;99487.72;5091577;28;20361;-68
2021/12/10 01:27:28;;;;;;;7.20;1.85;;;;;;;17.31;50.84;99479.97;5091951;28;20504;-68
2021/12/10 01:29:58;;;;;;;7.13;3.47;;;;;;;17.30;50.84;99466.97;5091716;28;20047;-68
2021/12/10 01:32:27;;;;;;;8.23;2.10;;;;;;;17.28;51.03;99459.22;5091352;28;20012;-68
2021/12/10 01:34:52;;;;;;;7.43;2.30;;;;;;;17.28;51.22;99459.22;5091930;28;20020;-68
2021/12/10 01:37:18;;;;;;;8.23;2.22;;;;;;;17.26;51.46;99458.53;5091321;28;20123;-68
2021/12/10 01:39:44;;;;;;;9.38;2.47;;;;;;;17.25;51.61;99448.97;5091685;28;20462;-68
2021/12/10 01:42:30;;;;;;;7.85;2.20;;;;;;;17.25;51.45;99446.34;5091736;28;20024;-68
2021/12/10 01:44:59;;;;;;;7.82;2.38;;;;;;;17.20;51.17;99428.38;5090764;28;20024;-68
2021/12/10 01:47:32;;;;;;;6.78;2.00;;;;;;;17.23;51.19;99438.59;5092155;28;20036;-68
2021/12/10 01:49:58;;;;;;;7.03;1.98;;;;;;;17.22;51.05;99441.38;5091573;28;20167;-68
2021/12/10 01:52:24;;;;;;;9.45;2.22;;;;;;;17.20;51.04;99431.00;5091722;28;20059;-68
2021/12/10 01:54:53;;;;;;;7.47;2.00;;;;;;;17.19;51.38;99425.91;5091731;28;20043;-68
2021/12/10 01:57:21;;;;;;;7.63;1.77;;;;;;;17.19;51.71;99425.91;5091893;28;20067;-68
2021/12/10 01:59:47;;;;;;;5.68;1.80;;;;;;;17.18;52.48;99422.44;5090291;28;20321;-67
2021/12/10 02:02:18;;;;;;;8.75;2.55;;;;;;;17.20;52.47;99423.09;5091967;28;20464;-68
2021/12/10 02:04:45;;;;;;;6.65;1.45;;;;;;;17.23;52.46;99419.34;5091695;28;20024;-68
2021/12/10 02:07:13;;;;;;;7.53;1.85;;;;;;;17.24;52.05;99413.09;5091130;28;20085;-68
2021/12/10 02:09:39;;;;;;;8.25;2.08;;;;;;;17.26;52.02;99402.41;5091914;28;20061;-68
2021/12/10 02:12:07;;;;;;;6.53;1.75;;;;;;;17.27;52.18;99402.25;5091588;28;20278;-68
2021/12/10 02:14:33;;;;;;;6.47;1.60;;;;;;;17.30;52.44;99399.31;5090651;28;20024;-68
2021/12/10 02:16:59;;;;;;;8.05;2.20;;;;;;;17.31;52.08;99398.34;5091429;28;20894;-68
2021/12/10 02:19:26;;;;;;;6.88;1.90;;;;;;;17.32;51.93;99392.09;5090359;28;20060;-68
2021/12/10 02:21:52;;;;;;;5.97;1.83;;;;;;;17.33;51.74;99388.47;5090996;28;20494;-68
2021/12/10 02:24:18;;;;;;;6.97;2.92;;;;;;;17.34;51.54;99382.25;5090311;28;20084;-69
2021/12/10 02:26:50;;;;;;;10.02;2.33;;;;;;;17.36;51.87;99376.81;5090071;28;20088;-68
2021/12/10 02:29:22;;;;;;;6.47;1.98;;;;;;;17.36;52.02;99366.28;5091093;28;20020;-68
2021/12/10 02:31:51;;;;;;;7.78;2.08;;;;;;;17.34;51.60;99348.00;5091178;28;20028;-68
2021/12/10 02:34:17;;;;;;;5.63;1.77;;;;;;;17.34;51.21;99350.63;5090922;28;20028;-68
2021/12/10 02:36:42;;;;;;;8.98;2.10;;;;;;;17.35;51.37;99348.81;5091368;28;20026;-68
2021/12/10 02:39:14;;;;;;;6.43;2.00;;;;;;;17.34;50.92;99337.47;5091150;28;20047;-68
2021/12/10 02:41:40;;;;;;;9.43;1.70;;;;;;;17.33;50.85;99335.00;5090027;28;20495;-68
2021/12/10 02:44:09;;;;;;;6.53;1.98;;;;;;;17.32;50.86;99328.06;5091025;28;20020;-68
2021/12/10 02:46:34;;;;;;;6.68;2.17;;;;;;;17.31;50.91;99319.34;5090916;28;20024;-68
2021/12/10 02:49:00;;;;;;;8.20;2.13;;;;;;;17.30;51.10;99315.06;5090006;28;20038;-68
2021/12/10 02:51:26;;;;;;;7.85;1.75;;;;;;;17.31;51.46;99310.63;5090998;28;20099;-68
2021/12/10 02:53:52;;;;;;;8.60;2.20;;;;;;;17.31;51.91;99315.91;5090589;28;20095;-68
2021/12/10 02:56:20;;;;;;;7.00;1.83;;;;;;;17.31;51.98;99314.09;5089819;28;20051;-68
2021/12/10 02:58:50;;;;;;;6.82;1.70;;;;;;;17.32;52.11;99302.56;5089977;28;20138;-68
2021/12/10 03:01:33;;;;;;;6.60;1.88;;;;;;;17.34;52.05;99302.41;5090384;28;20430;-68
2021/12/10 03:04:00;;;;;;;6.10;1.63;;;;;;;17.36;51.58;99303.09;5090130;28;20479;-69
2021/12/10 03:06:31;;;;;;;6.90;2.25;;;;;;;17.34;51.79;99283.97;5090089;28;20141;-69
2021/12/10 03:08:58;;;;;;;7.25;1.60;;;;;;;17.34;51.76;99279.53;5089201;28;20024;-69
2021/12/10 03:11:28;;;;;;;7.82;1.88;;;;;;;17.34;51.60;99271.63;5089954;28;20441;-69
2021/12/10 03:13:53;;;;;;;6.38;1.45;;;;;;;17.37;51.51;99283.66;5089811;28;20024;-69
2021/12/10 03:16:19;;;;;;;6.85;1.70;;;;;;;17.37;51.35;99273.97;5088930;28;20036;-69
2021/12/10 03:18:47;;;;;;;5.72;1.48;;;;;;;17.37;51.78;99273.13;5089557;28;20046;-69
2021/12/10 03:21:13;;;;;;;7.55;1.40;;;;;;;17.36;51.87;99263.59;5090035;28;20345;-69
2021/12/10 03:23:43;;;;;;;4.45;1.50;;;;;;;17.36;51.38;99263.59;5089029;28;20024;-69
2021/12/10 03:26:13;;;;;;;8.00;2.00;;;;;;;17.37;51.36;99262.59;5089051;28;20043;-69
2021/12/10 03:28:40;;;;;;;5.93;1.60;;;;;;;17.37;51.49;99262.59;5089789;28;20035;-69
2021/12/10 03:31:07;;;;;;;8.15;1.55;;;;;;;17.34;51.17;99253.22;5089417;28;20085;-68
2021/12/10 03:33:33;;;;;;;6.28;1.70;;;;;;;17.34;51.20;99253.22;5089893;28;20020;-68
2021/12/10 03:35:58;;;;;;;5.82;1.40;;;;;;;17.33;51.64;99254.19;5089426;28;20036;-69
2021/12/10 03:38:26;;;;;;;6.65;1.52;;;;;;;17.31;51.58;99250.88;5088976;28;20336;-69
2021/12/10 03:40:51;;;;;;;6.43;1.60;;;;;;;17.32;51.23;99230.63;5089366;28;20028;-69
2021/12/10 03:43:18;;;;;;;4.57;1.60;;;;;;;17.30;52.13;99220.25;5089477;28;20545;-69
2021/12/10 03:45:50;;;;;;;7.38;1.75;;;;;;;17.33;52.25;99224.41;5088736;28;20031;-69
2021/12/10 03:48:20;;;;;;;5.53;1.60;;;;;;;17.33;52.21;99219.13;5089031;28;20024;-69
2021/12/10 03:50:49;;;;;;;8.63;1.55;;;;;;;17.32;52.24;99209.56;5088655;28;20032;-69
2021/12/10 03:53:16;;;;;;;7.43;1.50;;;;;;;17.35;51.87;99217.97;5089533;28;20020;-69
2021/12/10 03:55:42;;;;;;;8.88;1.60;;;;;;;17.35;52.18;99207.44;5089022;28;20079;-69
2021/12/10 03:58:09;;;;;;;7.30;2.03;;;;;;;17.36;51.73;99211.72;5088826;28;20075;-69
2021/12/10 04:00:49;;;;;;;6.43;1.60;;;;;;;17.37;51.78;99213.41;5089318;28;20365;-69
2021/12/10 04:03:17;;;;;;;5.60;1.30;;;;;;;17.37;52.00;99207.28;5089406;28;20032;-69
2021/12/10 04:05:43;;;;;;;9.07;1.55;;;;;;;17.37;51.54;99192.31;5088634;28;20070;-69
2021/12/10 04:08:09;;;;;;;5.55;1.33;;;;;;;17.38;51.85;99187.88;5090016;28;20168;-69
2021/12/10 04:10:37;;;;;;;5.72;1.35;;;;;;;17.38;52.36;99178.16;5090384;28;20093;-69
2021/12/10 04:13:03;;;;;;;7.72;2.15;;;;;;;17.40;52.29;99178.84;5088715;28;20036;-68
2021/12/10 04:15:34;;;;;;;5.95;1.40;;;;;;;17.41;52.48;99163.84;5088938;28;20052;-68
2021/12/10 04:17:59;;;;;;;7.15;1.48;;;;;;;17.44;52.47;99163.53;5088929;28;20043;-67
2021/12/10 04:20:28;;;;;;;9.00;1.55;;;;;;;17.43;52.32;99156.63;5088473;28;20028;-68
2021/12/10 04:22:55;;;;;;;6.70;1.42;;;;;;;17.45;52.61;99145.91;5089431;28;20095;-68
2021/12/10 04:25:24;;;;;;;7.18;1.50;;;;;;;17.46;52.52;99152.84;5089883;28;20084;-68
2021/12/10 04:27:53;;;;;;;8.20;1.90;;;;;;;17.45;52.06;99152.03;5088301;28;20395;-68
2021/12/10 04:30:19;;;;;;;7.63;1.50;;;;;;;17.46;51.82;99139.69;5089121;28;20024;-69
2021/12/10 04:32:45;;;;;;;4.53;1.40;;;;;;;17.46;51.88;99131.78;5088801;28;20024;-69
2021/12/10 04:35:11;;;;;;;6.25;1.75;;;;;;;17.46;52.05;99119.41;5088339;28;20107;-68
2021/12/10 04:37:37;;;;;;;9.20;1.92;;;;;;;17.45;51.84;99117.78;5089587;28;20414;-69
2021/12/10 04:40:06;;;;;;;6.07;1.40;;;;;;;17.45;51.80;99120.44;5087989;28;20432;-69
2021/12/10 04:42:32;;;;;;;5.47;1.70;;;;;;;17.46;52.00;99102.81;5089630;28;20032;-67
2021/12/10 04:44:59;;;;;;;7.35;1.70;;;;;;;17.46;52.72;99100.97;5088974;28;20024;-69
2021/12/10 04:47:26;;;;;;;8.88;1.70;;;;;;;17.47;53.16;99094.75;5088346;28;20024;-69
2021/12/10 04:49:55;;;;;;;7.63;1.60;;;;;;;17.47;52.49;99086.84;5088646;28;20070;-69
2021/12/10 04:52:21;;;;;;;7.07;1.60;;;;;;;17.49;53.19;99082.22;5089223;28;20016;-69
2021/12/10 04:54:46;;;;;;;7.15;1.50;;;;;;;17.50;52.97;99081.25;5088664;28;20024;-69
2021/12/10 04:57:12;;;;;;;6.85;1.55;;;;;;;17.50;52.36;99073.34;5089516;28;20036;-68
2021/12/10 04:59:39;;;;;;;7.32;1.58;;;;;;;17.51;52.46;99069.72;5090043;28;20042;-67
2021/12/10 05:02:10;;;;;;;8.43;2.42;;;;;;;17.51;52.12;99068.91;5091968;28;20071;-67
2021/12/10 05:04:36;;;;;;;10.43;1.73;;;;;;;17.51;52.28;99064.44;5091532;28;20035;-67
2021/12/10 05:07:04;;;;;;;5.13;1.38;;;;;;;17.51;52.29;99063.63;5092366;28;20051;-68
2021/12/10 05:09:30;;;;;;;6.60;1.50;;;;;;;17.50;52.42;99051.44;5091623;28;20546;-68
2021/12/10 05:11:56;;;;;;;6.32;1.80;;;;;;;17.50;52.29;99054.06;5092160;28;20067;-68
2021/12/10 05:14:22;;;;;;;8.43;1.63;;;;;;;17.50;52.64;99040.91;5092317;28;20028;-68
2021/12/10 05:16:50;;;;;;;4.38;1.48;;;;;;;17.51;53.00;99039.94;5091099;28;20054;-68
2021/12/10 05:19:20;;;;;;;6.93;1.50;;;;;;;17.52;52.75;99044.22;5092219;28;20376;-69
2021/12/10 05:21:46;;;;;;;7.90;1.73;;;;;;;17.52;53.21;99042.41;5091820;28;20467;-68
2021/12/10 05:24:14;;;;;;;7.38;1.60;;;;;;;17.52;53.05;99033.69;5091144;28;20476;-68
2021/12/10 05:26:40;;;;;;;6.45;1.40;;;;;;;17.53;52.85;99032.66;5092102;28;20024;-67
2021/12/10 05:29:07;;;;;;;9.27;1.73;;;;;;;17.55;52.82;99033.34;5091895;28;20182;-67
2021/12/10 05:31:35;;;;;;;7.30;1.50;;;;;;;17.55;52.62;99038.63;5092276;28;20024;-69
2021/12/10 05:34:00;;;;;;;5.45;1.30;;;;;;;17.53;52.56;99030.88;5091756;28;20049;-68
2021/12/10 05:36:27;;;;;;;7.40;1.48;;;;;;;17.53;53.23;99027.41;5091308;28;20081;-68
2021/12/10 05:38:53;;;;;;;9.75;1.83;;;;;;;17.51;52.54;99022.31;5091593;28;20476;-68
2021/12/10 05:41:19;;;;;;;7.47;1.58;;;;;;;17.52;51.97;99023.16;5091921;28;20085;-69
2021/12/10 05:43:44;;;;;;;6.88;1.38;;;;;;;17.50;52.16;99020.69;5090847;28;20474;-68
2021/12/10 05:46:12;;;;;;;4.28;1.33;;;;;;;17.50;52.40;99009.28;5091525;28;20067;-68
2021/12/10 05:48:38;;;;;;;5.47;1.30;;;;;;;17.49;52.76;99016.38;5091472;28;20054;-68
2021/12/10 05:51:04;;;;;;;8.20;1.70;;;;;;;17.50;52.73;99010.13;5090779;28;20455;-67
2021/12/10 05:53:32;;;;;;;6.60;1.60;;;;;;;17.51;53.04;99014.41;5091720;28;20063;-67
2021/12/10 05:55:57;;;;;;;8.00;1.60;;;;;;;17.52;52.58;99012.59;5091178;28;20471;-67
2021/12/10 05:58:22;;;;;;;7.45;1.38;;;;;;;17.52;53.14;99005.53;5090595;28;20133;-67
2021/12/10 06:00:52;;;;;;;7.25;1.55;;;;;;;17.53;53.51;99012.44;5091082;28;20169;-67
2021/12/10 06:03:18;;;;;;;8.80;1.50;;;;;;;17.56;53.66;99017.38;5091397;28;20055;-68
2021/12/10 06:05:46;;;;;;;7.32;1.38;;;;;;;17.58;53.41;99001.41;5090286;28;20024;-67
2021/12/10 06:08:12;;;;;;;9.32;1.67;;;;;;;17.61;53.66;99009.00;5091216;28;20115;-67
2021/12/10 06:10:39;;;;;;;7.20;1.45;;;;;;;17.63;53.21;99011.47;5091203;28;20039;-67
2021/12/10 06:13:05;;;;;;;5.72;1.83;;;;;;;17.64;53.51;99019.19;5090415;28;20039;-67
2021/12/10 06:15:31;;;;;;;7.72;1.50;;;;;;;17.66;53.01;99004.03;5090891;28;20475;-67
2021/12/10 06:17:57;;;;;;;6.38;1.27;;;;;;;17.68;52.48;99003.88;5090988;28;20070;-67
2021/12/10 06:20:29;;;;;;;6.03;1.35;;;;;;;17.70;52.30;99004.53;5090383;28;20020;-66
2021/12/10 06:22:57;;;;;;;8.25;1.90;;;;;;;17.70;51.92;99000.06;5092148;28;20472;-68
2021/12/10 06:25:22;;;;;;;6.90;2.50;;;;;;;17.71;51.73;98996.44;5091571;28;20040;-68
2021/12/10 06:27:48;;;;;;;7.50;1.60;;;;;;;17.73;51.69;98988.38;5090453;28;20028;-68
2021/12/10 06:30:20;;;;;;;6.40;1.47;;;;;;;17.75;51.58;98992.50;5091931;28;20020;-68
2021/12/10 06:32:47;;;;;;;5.07;0.98;;;;;;;17.77;51.49;98997.63;5091260;28;20284;-68
2021/12/10 06:35:14;;;;;;;6.63;1.55;;;;;;;17.77;51.71;98993.16;5091835;28;20027;-68
2021/12/10 06:37:41;;;;;;;8.05;1.58;;;;;;;17.79;51.38;98979.81;5091213;28;20032;-67
2021/12/10 06:40:09;;;;;;;4.72;1.02;;;;;;;17.81;51.80;98977.81;5093051;28;20028;-68
2021/12/10 06:42:47;;;;;;;7.35;1.48;;;;;;;17.83;51.63;98981.13;5092852;28;20038;-68
2021/12/10 06:45:16;;;;;;;7.88;1.40;;;;;;;17.85;51.34;98983.56;5102609;28;20105;-68
2021/12/10 06:47:44;;;;;;;6.18;1.40;;;;;;;17.85;51.47;98984.41;5101199;28;20039;-68
2021/12/10 06:50:10;;;;;;;7.20;1.45;;;;;;;17.86;51.61;98982.59;5106556;28;20036;-68
2021/12/10 06:52:35;;;;;;;4.72;1.42;;;;;;;17.87;51.52;98981.63;5105241;28;20388;-69
2021/12/10 06:55:01;;;;;;;6.03;1.40;;;;;;;17.89;51.21;98992.84;5101415;28;20165;-67
2021/12/10 06:57:26;;;;;;;6.32;1.40;;;;;;;17.90;51.08;98994.50;5105642;28;20026;-67
2021/12/10 06:59:53;;;;;;;7.68;1.88;;;;;;;17.92;51.07;98992.50;5099032;28;20020;-67
2021/12/10 07:02:19;;;;;;;6.30;1.60;;;;;;;17.93;50.90;98996.78;5090434;28;20047;-68
2021/12/10 07:04:45;;;;;;;8.15;1.27;;;;;;;17.94;51.03;99001.91;5092341;28;20087;-68
2021/12/10 07:07:11;;;;;;;6.43;1.95;;;;;;;17.95;50.82;99003.53;5092589;28;20408;-69
2021/12/10 07:09:38;;;;;;;5.82;1.40;;;;;;;17.95;51.09;98992.97;5091790;28;20099;-68
2021/12/10 07:12:05;;;;;;;5.75;1.52;;;;;;;17.94;49.35;98995.78;5091696;28;20038;-68
2021/12/10 07:14:31;;;;;;;5.63;1.23;;;;;;;17.95;50.28;98995.63;5093338;28;20072;-67
2021/12/10 07:16:56;;;;;;;6.07;1.33;;;;;;;17.95;50.81;98990.34;5090231;28;20048;-74
2021/12/10 07:19:22;;;;;;;8.75;1.75;;;;;;;17.97;50.60;99000.72;5094680;28;20035;-69
2021/12/10 07:21:50;;;;;;;6.88;1.50;;;;;;;17.98;48.94;98996.28;5090846;28;20020;-69
2021/12/10 07:24:17;;;;;;;5.75;1.20;;;;;;;17.99;49.56;99004.03;5090682;28;20028;-69
2021/12/10 07:26:46;;;;;;;7.18;1.40;;;;;;;18.00;49.77;98989.03;5089800;28;20043;-69
2021/12/10 07:29:12;;;;;;;6.13;1.40;;;;;;;18.02;50.14;98993.13;5089168;28;20032;-67
2021/12/10 07:31:40;;;;;;;6.18;1.30;;;;;;;18.03;49.96;98989.50;5089877;28;20034;-70
2021/12/10 07:34:05;;;;;;;8.82;1.33;;;;;;;18.07;49.92;98993.47;5089616;28;20448;-69
2021/12/10 07:36:38;;;;;;;6.57;1.60;;;;;;;18.10;50.25;98984.38;5088829;28;20038;-69
2021/12/10 07:39:05;;;;;;;4.85;1.35;;;;;;;18.11;50.24;98993.94;5089342;28;20024;-68
2021/12/10 07:41:31;;;;;;;5.65;1.15;;;;;;;18.13;50.30;98990.16;5089893;28;20139;-68
2021/12/10 07:43:56;;;;;;;6.30;1.38;;;;;;;18.15;50.40;98997.06;5088622;28;20490;-68
2021/12/10 07:46:24;;;;;;;6.00;1.30;;;;;;;18.17;50.36;98981.91;5089797;28;20028;-69
2021/12/10 07:48:50;;;;;;;6.75;1.38;;;;;;;18.17;50.50;98995.09;5089057;28;20036;-67
2021/12/10 07:51:22;;;;;;;7.93;1.63;;;;;;;18.17;50.55;98993.28;5088528;28;20031;-67
2021/12/10 07:53:54;;;;;;;7.03;1.50;;;;;;;18.18;50.82;98996.72;5089375;28;20060;-65
2021/12/10 07:56:20;;;;;;;4.38;1.13;;;;;;;18.18;50.27;98989.63;5089461;28;20039;-68
2021/12/10 07:58:48;;;;;;;4.63;1.10;;;;;;;18.20;50.66;98992.09;5088251;28;20391;-65
2021/12/10 08:01:22;;;;;;;5.63;1.38;;;;;;;18.22;50.07;98998.84;5088536;28;20044;-65
2021/12/10 08:03:50;;;;;;;6.20;1.50;;;;;;;18.23;50.36;98997.88;5089214;28;20503;-68
2021/12/10 08:06:18;;;;;;;9.10;1.33;;;;;;;18.24;50.48;98999.50;5088841;28;20430;-68
2021/12/10 08:08:43;;;;;;;7.85;1.50;;;;;;;18.26;50.32;98996.69;5089592;28;20020;-67
2021/12/10 08:11:08;;;;;;;6.60;1.60;;;;;;;18.27;50.46;99000.97;5088866;28;20451;-68
2021/12/10 08:13:34;;;;;;;7.43;1.40;;;;;;;18.27;50.77;98995.69;5089939;28;20106;-69
2021/12/10 08:15:59;;;;;;;6.20;1.52;;;;;;;18.29;50.61;99001.63;5089507;28;20162;-65
2021/12/10 08:18:25;;;;;;;5.68;1.45;;;;;;;18.29;50.60;99005.09;5088971;28;20475;-69
2021/12/10 08:20:50;;;;;;;5.85;1.23;;;;;;;18.30;50.52;98995.38;5089521;28;20306;-68
2021/12/10 08:23:19;;;;;;;7.68;1.52;;;;;;;18.30;50.93;99001.44;5089603;28;20119;-67
2021/12/10 08:25:45;;;;;;;6.88;1.35;;;;;;;18.33;50.34;99002.94;5088344;28;20076;-70
2021/12/10 08:28:10;;;;;;;6.75;1.30;;;;;;;18.34;50.77;99009.88;5089299;28;20030;-67
2021/12/10 08:30:38;;;;;;;5.40;1.33;;;;;;;18.33;51.01;99000.31;5088964;28;20032;-66
2021/12/10 08:33:10;;;;;;;5.93;1.40;;;;;;;18.34;51.00;98995.84;5088059;28;20491;-69
2021/12/10 08:35:36;;;;;;;6.97;1.50;;;;;;;18.35;50.14;99000.94;5092533;28;20137;-69
2021/12/10 08:38:02;;;;;;;7.30;1.35;;;;;;;18.33;50.12;98997.66;5093064;28;20027;-69
2021/12/10 08:40:36;;;;;;;6.20;1.33;;;;;;;18.33;50.80;98997.66;5093009;28;20344;-69
2021/12/10 08:43:05;;;;;;;7.55;1.20;;;;;;;18.40;51.43;99006.53;5100840;28;20024;-68
2021/12/10 08:45:32;;;;;;;7.10;1.50;;;;;;;18.55;51.75;99011.06;5094672;28;20043;-65
2021/12/10 08:47:58;;;;;;;8.93;1.60;;;;;;;18.65;51.53;99001.97;5093614;28;20111;-71
2021/12/10 08:50:27;;;;;;;6.80;1.33;;;;;;;18.74;51.20;99001.91;5093297;28;20131;-68
2021/12/10 08:52:57;;;;;;;5.57;1.25;;;;;;;18.80;51.28;99002.06;5093454;28;20043;-67
2021/12/10 08:55:23;;;;;;;7.43;1.40;;;;;;;18.89;50.69;99004.69;5093054;28;20020;-64
2021/12/10 08:57:48;;;;;;;8.25;1.35;;;;;;;18.93;50.49;99005.97;5093259;28;20036;-67
2021/12/10 09:00:16;;;;;;;6.78;1.40;;;;;;;18.94;50.02;99003.16;5093253;28;20082;-68
2021/12/10 09:02:42;;;;;;;10.18;1.48;;;;;;;18.98;48.78;99004.47;5093251;28;20027;-67
2021/12/10 09:05:10;;;;;;;5.43;1.27;;;;;;;19.03;50.24;99004.75;5093789;28;20069;-66
2021/12/10 09:07:37;;;;;;;7.82;1.63;;;;;;;19.07;50.46;99007.06;5092701;28;20063;-66
2021/12/10 09:10:08;;;;;;;9.50;1.50;;;;;;;19.09;50.45;99005.03;5092977;28;20420;-65
2021/12/10 09:12:40;;;;;;;8.45;1.63;;;;;;;19.12;50.60;99010.81;5093362;28;20107;-68
2021/12/10 09:15:10;;;;;;;8.27;1.70;;;;;;;19.12;49.92;99016.09;5093106;28;20048;-66
2021/12/10 09:17:39;;;;;;;6.82;1.42;;;;;;;19.17;50.39;99016.41;5094472;28;20024;-62
2021/12/10 09:20:17;;;;;;;8.93;1.85;;;;;;;19.20;49.96;99015.19;5094719;28;20085;-69
2021/12/10 09:22:45;;;;;;;10.13;1.60;;;;;;;19.24;50.23;99013.06;5092260;28;20123;-66
2021/12/10 09:25:12;;;;;;;5.60;1.50;;;;;;;19.26;49.75;99016.31;5094157;28;20076;-70
2021/12/10 09:27:37;;;;;;;6.97;1.55;;;;;;;19.28;50.37;99014.31;5094272;28;20024;-71
2021/12/10 09:30:12;;;;;;;7.57;1.40;;;;;;;19.29;50.06;99014.16;5093819;28;20031;-68
2021/12/10 09:32:38;;;;;;;8.93;1.58;;;;;;;19.28;49.99;99022.25;5093623;28;20071;-68
2021/12/10 09:35:07;;;;;;;8.15;1.63;;;;;;;19.31;50.38;99020.09;5092649;28;20396;-69
2021/12/10 09:37:34;;;;;;;8.27;1.75;;;;;;;19.31;50.13;99024.53;5092921;28;20025;-66
2021/12/10 09:40:05;;;;;;;10.35;2.17;;;;;;;19.31;50.14;99025.38;5092219;28;20047;-66
2021/12/10 09:42:31;;;;;;;9.65;1.88;;;;;;;19.34;50.15;99030.31;5092299;28;20024;-64
2021/12/10 09:44:56;;;;;;;7.18;1.60;;;;;;;19.35;50.70;99020.56;5092967;28;20062;-66
2021/12/10 09:47:22;;;;;;;9.98;2.15;;;;;;;19.37;50.63;99027.28;5093898;28;20106;-69
2021/12/10 09:49:52;;;;;;;9.48;2.33;;;;;;;19.39;50.46;99027.13;5091685;28;20066;-68
2021/12/10 09:52:23;;;;;;;8.13;2.10;;;;;;;19.40;50.94;99026.94;5092521;28;20039;-67
2021/12/10 09:54:48;;;;;;;7.20;2.00;;;;;;;19.40;50.89;99023.47;5091783;28;20483;-68
2021/12/10 09:57:21;;;;;;;9.90;2.53;;;;;;;19.39;51.15;99027.97;5091247;28;20054;-67
2021/12/10 09:59:51;;;;;;;8.90;1.77;;;;;;;19.38;51.50;99026.31;5091590;28;20035;-68
2021/12/10 10:02:18;;;;;;;10.55;2.10;;;;;;;19.36;51.46;99025.66;5091627;28;20040;-68
2021/12/10 10:04:48;;;;;;;8.70;2.00;;;;;;;19.35;51.49;99028.47;5090954;28;20023;-71
2021/12/10 10:07:26;;;;;;;6.72;1.88;;;;;;;19.30;51.84;99031.66;5091682;28;20058;-72
2021/12/10 10:09:55;;;;;;;9.10;2.00;;;;;;;19.26;51.02;99038.28;5091598;28;20113;-68
2021/12/10 10:12:42;;;;;;;8.00;1.75;;;;;;;19.24;51.25;99031.53;5090878;28;20024;-68
2021/12/10 10:15:13;;;;;;;7.65;1.73;;;;;;;19.23;51.37;99037.81;5091303;28;20044;-69
2021/12/10 10:17:38;;;;;;;11.80;1.85;;;;;;;19.22;51.72;99034.34;5091096;28;20044;-69
2021/12/10 10:20:09;;;;;;;8.63;1.95;;;;;;;19.23;51.76;99032.53;5091729;28;20039;-67
2021/12/10 10:22:35;;;;;;;7.85;1.95;;;;;;;19.23;52.03;99028.06;5091389;28;20520;-66
2021/12/10 10:25:00;;;;;;;10.93;2.10;;;;;;;19.24;51.83;99036.81;5090412;28;20183;-66
2021/12/10 10:27:30;;;;;;;8.90;2.00;;;;;;;19.25;51.73;99041.94;5091450;28;20081;-67
2021/12/10 10:30:02;;;;;;;9.30;1.90;;;;;;;19.24;51.26;99034.19;5091291;28;20124;-64
2021/12/10 10:32:31;;;;;;;11.15;2.60;;;;;;;19.23;51.19;99041.25;5090315;28;20549;-64
2021/12/10 10:35:01;;;;;;;12.10;4.15;;;;;;;19.23;51.67;99032.53;5090618;28;20031;-66
2021/12/10 10:37:28;;;;;;;6.55;1.75;;;;;;;19.21;51.70;99046.72;5091060;28;20032;-65
2021/12/10 10:39:58;;;;;;;9.02;1.90;;;;;;;19.21;51.93;99035.34;5091914;28;20028;-69
2021/12/10 10:42:27;;;;;;;14.63;3.45;;;;;;;19.22;51.83;99031.72;5101326;28;20543;-67
2021/12/10 10:44:57;;;;;;;7.75;2.28;;;;;;;19.22;51.03;99039.63;5091217;28;20032;-63
2021/12/10 10:47:23;;;;;;;9.65;2.05;;;;;;;19.21;51.09;99036.16;5090342;28;20051;-61
2021/12/10 10:49:53;;;;;;;10.57;1.77;;;;;;;19.20;51.09;99039.81;5090875;28;20445;-66
2021/12/10 10:52:30;;;;;;;10.95;2.03;;;;;;;19.21;51.64;99040.63;5090895;28;20143;-63
2021/12/10 10:55:42;;;;;;;9.75;1.88;;;;;;;19.19;51.30;99039.97;5094444;28;20028;-64
2021/12/10 10:58:22;;;;;;;7.55;1.92;;;;;;;19.19;51.86;99042.63;5085884;28;20055;-64
2021/12/10 11:01:14;;;;;;;9.40;2.03;;;;;;;19.21;52.14;99045.91;5090565;28;20046;-64
2021/12/10 11:03:46;;;;;;;7.68;1.83;;;;;;;19.21;51.93;99046.72;5090613;28;20107;-67
2021/12/10 11:06:17;;;;;;;8.98;2.00;;;;;;;19.21;51.65;99052.00;5091515;28;20055;-63
2021/12/10 11:08:50;;;;;;;9.55;2.25;;;;;;;19.20;51.39;99047.72;5090052;28;20028;-63
2021/12/10 11:11:20;;;;;;;7.70;1.65;;;;;;;19.20;51.29;99050.38;5091316;28;20044;-62
2021/12/10 11:14:04;;;;;;;9.13;1.73;;;;;;;19.21;51.33;99059.09;5092196;28;20024;-63
2021/12/10 11:16:31;;;;;;;9.63;1.70;;;;;;;19.20;51.09;99053.00;5090838;28;20040;-65
2021/12/10 11:19:13;;;;;;;7.70;1.88;;;;;;;19.20;51.11;99055.66;5090289;28;20262;-65
2021/12/10 11:21:47;;;;;;;10.60;2.35;;;;;;;19.20;51.10;99060.94;5089536;28;20032;-64
2021/12/10 11:24:21;;;;;;;;;;;;;;;19.18;51.02;99060.28;5091398;28;20058;-62
2021/12/10 11:27:05;;;;;;;9.48;1.92;;;;;;;19.16;50.88;99059.63;5090210;28;19916;-63
2021/12/10 11:29:50;;;;;;;8.60;1.90;;;;;;;19.15;51.21;99059.81;5089896;28;20137;-64
2021/12/10 11:32:25;;;;;;;6.63;1.80;;;;;;;19.14;51.27;99059.00;5097836;28;20055;-65
2021/12/10 11:35:01;;;;;;;9.75;1.90;;;;;;;19.15;51.32;99058.00;5096116;28;20139;-65
2021/12/10 11:37:57;;;;;;;7.40;1.80;;;;;;;19.16;50.84;99058.81;5094276;28;20020;-66
2021/12/10 11:40:35;;;;;;;6.60;1.40;;;;;;;19.14;51.06;99060.81;5090077;28;20031;-69
2021/12/10 11:43:34;;;;;;;8.98;1.90;;;;;;;19.08;51.12;99058.88;5088763;28;20024;-66
2021/12/10 11:48:45;;;;;;;8.75;1.80;;;;;;;18.93;50.71;99064.03;5089475;28;20044;-69
2021/12/10 11:51:16;;;;;;;10.05;1.98;;;;;;;18.89;50.87;99070.69;5088996;28;20063;-67